createdAt,value
2023-01-22T00:00:51.324Z,1021.15
2023-01-22T00:01:51.485Z,1021.09
2023-01-22T00:02:51.733Z,1021.15
2023-01-22T00:03:51.976Z,1021.19
2023-01-22T00:04:52.105Z,1021.20
2023-01-22T00:05:52.299Z,1021.18
2023-01-22T00:06:52.448Z,1021.23
2023-01-22T00:07:52.636Z,1021.18
2023-01-22T00:08:52.784Z,1021.16
2023-01-22T00:09:52.958Z,1021.15
2023-01-22T00:10:53.111Z,1021.17
2023-01-22T00:11:53.285Z,1021.16
2023-01-22T00:12:53.506Z,1021.16
2023-01-22T00:13:53.679Z,1021.18
2023-01-22T00:14:53.843Z,1021.12
2023-01-22T00:15:54.051Z,1021.18
2023-01-22T00:16:54.186Z,1021.15
2023-01-22T00:17:54.366Z,1021.14
2023-01-22T00:18:54.522Z,1021.19
2023-01-22T00:19:54.696Z,1021.22
2023-01-22T00:20:54.852Z,1021.23
2023-01-22T00:21:55.025Z,1021.19
2023-01-22T00:22:55.206Z,1021.21
2023-01-22T00:23:55.377Z,1021.22
2023-01-22T00:24:55.525Z,1021.21
2023-01-22T00:25:55.688Z,1021.19
2023-01-22T00:26:55.854Z,1021.19
2023-01-22T00:27:56.025Z,1021.17
2023-01-22T00:28:56.190Z,1021.21
2023-01-22T00:29:56.335Z,1021.18
2023-01-22T00:30:56.569Z,1021.17
2023-01-22T00:31:56.753Z,1021.17
2023-01-22T00:32:56.816Z,1021.19
2023-01-22T00:33:56.975Z,1021.18
2023-01-22T00:34:57.112Z,1021.14
2023-01-22T00:35:57.282Z,1021.12
2023-01-22T00:36:57.423Z,1021.07
2023-01-22T00:37:57.603Z,1021.14
2023-01-22T00:38:57.756Z,1021.09
2023-01-22T00:39:57.912Z,1021.12
2023-01-22T00:40:58.058Z,1021.12
2023-01-22T00:41:58.212Z,1021.16
2023-01-22T00:42:58.377Z,1021.19
2023-01-22T00:43:58.542Z,1021.13
2023-01-22T00:44:58.701Z,1021.17
2023-01-22T00:45:58.875Z,1021.18
2023-01-22T00:46:59.031Z,1021.19
2023-01-22T00:47:59.211Z,1021.21
2023-01-22T00:48:59.359Z,1021.22
2023-01-22T00:49:59.572Z,1021.21
2023-01-22T00:50:59.740Z,1021.24
2023-01-22T00:51:59.908Z,1021.22
2023-01-22T00:53:00.087Z,1021.20
2023-01-22T00:54:00.238Z,1021.18
2023-01-22T00:55:00.400Z,1021.21
2023-01-22T00:56:00.570Z,1021.23
2023-01-22T00:57:00.718Z,1021.21
2023-01-22T00:58:00.895Z,1021.19
2023-01-22T00:59:01.055Z,1021.18
2023-01-22T01:00:01.196Z,1021.16
2023-01-22T01:01:01.453Z,1021.16
2023-01-22T01:02:01.658Z,1021.16
2023-01-22T01:03:01.811Z,1021.20
2023-01-22T01:04:01.959Z,1021.16
2023-01-22T01:05:02.109Z,1021.16
2023-01-22T01:06:02.273Z,1021.16
2023-01-22T01:07:02.416Z,1021.19
2023-01-22T01:08:02.582Z,1021.20
2023-01-22T01:09:02.730Z,1021.23
2023-01-22T01:10:02.886Z,1021.21
2023-01-22T01:11:03.024Z,1021.23
2023-01-22T01:12:03.186Z,1021.18
2023-01-22T01:13:03.354Z,1021.18
2023-01-22T01:14:03.515Z,1021.21
2023-01-22T01:15:03.654Z,1021.16
2023-01-22T01:16:03.883Z,1021.19
2023-01-22T01:17:03.935Z,1021.18
2023-01-22T01:18:04.117Z,1021.16
2023-01-22T01:19:04.258Z,1021.21
2023-01-22T01:20:04.387Z,1021.22
2023-01-22T01:21:04.508Z,1021.26
2023-01-22T01:22:04.768Z,1021.23
2023-01-22T01:23:04.922Z,1021.23
2023-01-22T01:24:05.089Z,1021.23
2023-01-22T01:25:05.230Z,1021.27
2023-01-22T01:26:05.378Z,1021.27
2023-01-22T01:27:05.508Z,1021.27
2023-01-22T01:28:05.682Z,1021.31
2023-01-22T01:29:05.904Z,1021.29
2023-01-22T01:30:06.071Z,1021.21
2023-01-22T01:31:06.376Z,1021.28
2023-01-22T01:32:06.382Z,1021.30
2023-01-22T01:33:06.541Z,1021.31
2023-01-22T01:34:06.717Z,1021.30
2023-01-22T01:35:06.844Z,1021.30
2023-01-22T01:36:06.984Z,1021.29
2023-01-22T01:37:07.124Z,1021.28
2023-01-22T01:38:07.292Z,1021.26
2023-01-22T01:39:07.436Z,1021.36
2023-01-22T01:40:07.582Z,1021.36
2023-01-22T01:41:07.725Z,1021.33
2023-01-22T01:42:07.867Z,1021.31
2023-01-22T01:43:08.039Z,1021.42
2023-01-22T01:44:08.175Z,1021.35
2023-01-22T01:45:08.322Z,1021.35
2023-01-22T01:46:08.462Z,1021.38
2023-01-22T01:47:08.613Z,1021.37
2023-01-22T01:48:08.772Z,1021.39
2023-01-22T01:49:08.921Z,1021.39
2023-01-22T01:50:09.074Z,1021.37
2023-01-22T01:51:09.338Z,1021.40
2023-01-22T01:52:09.474Z,1021.39
2023-01-22T01:53:09.619Z,1021.39
2023-01-22T01:54:16.775Z,1021.39
2023-01-22T01:55:09.889Z,1021.41
2023-01-22T01:56:10.045Z,1021.43
2023-01-22T01:57:12.882Z,1021.46
2023-01-22T01:58:10.365Z,1021.50
2023-01-22T01:59:10.499Z,1021.51
2023-01-22T02:00:10.662Z,1021.56
2023-01-22T02:01:10.839Z,1021.54
2023-01-22T02:02:11.121Z,1021.46
2023-01-22T02:03:11.182Z,1021.46
2023-01-22T02:04:11.331Z,1021.50
2023-01-22T02:05:11.480Z,1021.49
2023-01-22T02:06:11.647Z,1021.50
2023-01-22T02:07:11.780Z,1021.50
2023-01-22T02:08:11.933Z,1021.51
2023-01-22T02:09:12.080Z,1021.53
2023-01-22T02:10:12.208Z,1021.55
2023-01-22T02:11:12.350Z,1021.64
2023-01-22T02:12:12.512Z,1021.58
2023-01-22T02:13:12.704Z,1021.58
2023-01-22T02:14:12.847Z,1021.58
2023-01-22T02:15:12.996Z,1021.57
2023-01-22T02:16:13.237Z,1021.56
2023-01-22T02:17:13.411Z,1021.55
2023-01-22T02:18:13.592Z,1021.55
2023-01-22T02:19:13.748Z,1021.58
2023-01-22T02:20:13.885Z,1021.58
2023-01-22T02:21:14.138Z,1021.54
2023-01-22T02:22:14.290Z,1021.58
2023-01-22T02:23:14.467Z,1021.54
2023-01-22T02:24:14.615Z,1021.60
2023-01-22T02:25:14.764Z,1021.59
2023-01-22T02:26:14.913Z,1021.60
2023-01-22T02:27:15.164Z,1021.62
2023-01-22T02:28:15.351Z,1021.60
2023-01-22T02:29:15.511Z,1021.62
2023-01-22T02:30:15.900Z,1021.61
2023-01-22T02:31:15.884Z,1021.61
2023-01-22T02:32:16.014Z,1021.62
2023-01-22T02:33:16.181Z,1021.63
2023-01-22T02:34:16.313Z,1021.62
2023-01-22T02:35:16.591Z,1021.58
2023-01-22T02:36:16.728Z,1021.58
2023-01-22T02:37:16.887Z,1021.55
2023-01-22T02:38:17.063Z,1021.53
2023-01-22T02:39:17.215Z,1021.52
2023-01-22T02:40:17.691Z,1021.50
2023-01-22T02:41:17.591Z,1021.54
2023-01-22T02:42:17.715Z,1021.46
2023-01-22T02:43:17.999Z,1021.50
2023-01-22T02:44:18.169Z,1021.46
2023-01-22T02:45:18.323Z,1021.45
2023-01-22T02:46:18.470Z,1021.47
2023-01-22T02:47:18.613Z,1021.46
2023-01-22T02:48:18.770Z,1021.47
2023-01-22T02:49:18.904Z,1021.49
2023-01-22T02:50:19.424Z,1021.51
2023-01-22T02:51:19.312Z,1021.52
2023-01-22T02:52:19.440Z,1021.46
2023-01-22T02:53:19.730Z,1021.49
2023-01-22T02:54:19.865Z,1021.49
2023-01-22T02:55:20.022Z,1021.48
2023-01-22T02:56:20.310Z,1021.50
2023-01-22T02:57:20.327Z,1021.48
2023-01-22T02:58:20.624Z,1021.46
2023-01-22T02:59:20.770Z,1021.49
2023-01-22T03:00:21.057Z,1021.45
2023-01-22T03:01:21.231Z,1021.48
2023-01-22T03:02:21.352Z,1021.47
2023-01-22T03:03:21.503Z,1021.51
2023-01-22T03:04:21.660Z,1021.48
2023-01-22T03:05:21.812Z,1021.51
2023-01-22T03:06:22.116Z,1021.53
2023-01-22T03:07:22.190Z,1021.51
2023-01-22T03:08:22.350Z,1021.55
2023-01-22T03:09:22.503Z,1021.56
2023-01-22T03:10:22.650Z,1021.56
2023-01-22T03:11:22.801Z,1021.51
2023-01-22T03:12:23.009Z,1021.53
2023-01-22T03:13:23.190Z,1021.54
2023-01-22T03:14:23.443Z,1021.59
2023-01-22T03:15:23.505Z,1021.60
2023-01-22T03:16:23.689Z,1021.62
2023-01-22T03:17:23.955Z,1021.58
2023-01-22T03:18:23.998Z,1021.62
2023-01-22T03:19:24.154Z,1021.57
2023-01-22T03:20:24.281Z,1021.61
2023-01-22T03:21:24.420Z,1021.61
2023-01-22T03:22:24.560Z,1021.68
2023-01-22T03:23:24.706Z,1021.68
2023-01-22T03:24:24.886Z,1021.66
2023-01-22T03:25:25.026Z,1021.76
2023-01-22T03:26:25.167Z,1021.76
2023-01-22T03:27:25.308Z,1021.79
2023-01-22T03:28:25.457Z,1021.74
2023-01-22T03:29:25.603Z,1021.77
2023-01-22T03:30:25.743Z,1021.76
2023-01-22T03:31:26.019Z,1021.74
2023-01-22T03:32:26.079Z,1021.74
2023-01-22T03:33:26.234Z,1021.73
2023-01-22T03:34:26.348Z,1021.69
2023-01-22T03:35:26.602Z,1021.70
2023-01-22T03:36:26.809Z,1021.72
2023-01-22T03:37:26.952Z,1021.72
2023-01-22T03:38:27.094Z,1021.76
2023-01-22T03:39:27.231Z,1021.74
2023-01-22T03:40:27.375Z,1021.71
2023-01-22T03:41:27.510Z,1021.74
2023-01-22T03:42:27.655Z,1021.76
2023-01-22T03:43:27.820Z,1021.77
2023-01-22T03:44:28.044Z,1021.73
2023-01-22T03:45:28.201Z,1021.76
2023-01-22T03:46:28.436Z,1021.77
2023-01-22T03:47:28.620Z,1021.74
2023-01-22T03:48:28.768Z,1021.78
2023-01-22T03:49:28.918Z,1021.75
2023-01-22T03:50:29.053Z,1021.74
2023-01-22T03:51:29.201Z,1021.78
2023-01-22T03:52:29.399Z,1021.79
2023-01-22T03:53:29.557Z,1021.77
2023-01-22T03:54:29.688Z,1021.77
2023-01-22T03:55:29.936Z,1021.78
2023-01-22T03:56:30.061Z,1021.78
2023-01-22T03:57:30.307Z,1021.74
2023-01-22T03:58:30.556Z,1021.79
2023-01-22T03:59:30.733Z,1021.77
2023-01-22T04:00:30.836Z,1021.77
2023-01-22T04:01:31.136Z,1021.81
2023-01-22T04:02:31.328Z,1021.79
2023-01-22T04:03:31.451Z,1021.85
2023-01-22T04:04:31.593Z,1021.81
2023-01-22T04:05:31.734Z,1021.78
2023-01-22T04:06:31.862Z,1021.80
2023-01-22T04:07:32.125Z,1021.78
2023-01-22T04:08:32.287Z,1021.80
2023-01-22T04:09:32.419Z,1021.81
2023-01-22T04:10:32.554Z,1021.81
2023-01-22T04:11:32.700Z,1021.82
2023-01-22T04:12:32.822Z,1021.84
2023-01-22T04:13:33.078Z,1021.80
2023-01-22T04:14:33.199Z,1021.82
2023-01-22T04:15:33.449Z,1021.85
2023-01-22T04:16:33.724Z,1021.84
2023-01-22T04:17:33.859Z,1021.86
2023-01-22T04:18:34.018Z,1021.85
2023-01-22T04:19:34.164Z,1021.88
2023-01-22T04:20:34.279Z,1021.90
2023-01-22T04:21:34.422Z,1021.92
2023-01-22T04:22:34.546Z,1021.92
2023-01-22T04:23:34.800Z,1021.95
2023-01-22T04:24:34.927Z,1021.93
2023-01-22T04:25:35.182Z,1021.95
2023-01-22T04:26:35.318Z,1021.99
2023-01-22T04:27:35.454Z,1021.97
2023-01-22T04:28:35.611Z,1021.96
2023-01-22T04:29:35.734Z,1021.98
2023-01-22T04:30:36.003Z,1022.06
2023-01-22T04:31:36.222Z,1022.02
2023-01-22T04:32:36.304Z,1022.07
2023-01-22T04:33:36.544Z,1022.06
2023-01-22T04:34:36.735Z,1022.02
2023-01-22T04:35:36.934Z,1021.97
2023-01-22T04:36:37.077Z,1021.95
2023-01-22T04:37:37.326Z,1021.92
2023-01-22T04:38:37.476Z,1021.93
2023-01-22T04:39:37.625Z,1021.99
2023-01-22T04:40:37.739Z,1021.99
2023-01-22T04:41:38.021Z,1021.97
2023-01-22T04:42:38.157Z,1021.99
2023-01-22T04:43:38.414Z,1021.98
2023-01-22T04:44:38.542Z,1022.01
2023-01-22T04:45:38.795Z,1021.99
2023-01-22T04:46:39.014Z,1021.99
2023-01-22T04:47:39.263Z,1022.06
2023-01-22T04:48:39.398Z,1022.05
2023-01-22T04:49:39.538Z,1022.07
2023-01-22T04:50:39.781Z,1022.03
2023-01-22T04:51:40.036Z,1022.06
2023-01-22T04:52:40.216Z,1022.05
2023-01-22T04:53:40.379Z,1022.07
2023-01-22T04:54:40.496Z,1022.06
2023-01-22T04:55:40.731Z,1022.09
2023-01-22T04:56:40.867Z,1022.11
2023-01-22T04:57:41.023Z,1022.11
2023-01-22T04:58:41.166Z,1022.17
2023-01-22T04:59:41.296Z,1022.18
2023-01-22T05:00:41.473Z,1022.22
2023-01-22T05:01:41.684Z,1022.20
2023-01-22T05:02:41.880Z,1022.22
2023-01-22T05:03:42.084Z,1022.25
2023-01-22T05:04:42.280Z,1022.23
2023-01-22T05:05:42.524Z,1022.26
2023-01-22T05:06:42.661Z,1022.30
2023-01-22T05:07:42.904Z,1022.30
2023-01-22T05:08:43.058Z,1022.23
2023-01-22T05:09:43.248Z,1022.30
2023-01-22T05:10:43.372Z,1022.33
2023-01-22T05:11:43.612Z,1022.31
2023-01-22T05:12:43.751Z,1022.35
2023-01-22T05:13:44.020Z,1022.36
2023-01-22T05:14:44.143Z,1022.36
2023-01-22T05:15:44.389Z,1022.39
2023-01-22T05:16:44.471Z,1022.42
2023-01-22T05:17:44.727Z,1022.40
2023-01-22T05:18:44.863Z,1022.41
2023-01-22T05:19:45.009Z,1022.44
2023-01-22T05:20:45.190Z,1022.43
2023-01-22T05:21:45.436Z,1022.40
2023-01-22T05:22:45.579Z,1022.47
2023-01-22T05:23:45.841Z,1022.47
2023-01-22T05:24:45.978Z,1022.46
2023-01-22T05:25:46.123Z,1022.50
2023-01-22T05:26:46.252Z,1022.49
2023-01-22T05:27:46.393Z,1022.49
2023-01-22T05:28:46.545Z,1022.53
2023-01-22T05:29:46.703Z,1022.55
2023-01-22T05:30:46.945Z,1022.56
2023-01-22T05:31:47.025Z,1022.56
2023-01-22T05:32:47.143Z,1022.58
2023-01-22T05:33:47.407Z,1022.58
2023-01-22T05:34:47.537Z,1022.57
2023-01-22T05:35:47.785Z,1022.57
2023-01-22T05:36:47.916Z,1022.57
2023-01-22T05:37:48.178Z,1022.58
2023-01-22T05:38:48.324Z,1022.60
2023-01-22T05:39:48.460Z,1022.62
2023-01-22T05:40:48.593Z,1022.59
2023-01-22T05:41:48.865Z,1022.58
2023-01-22T05:42:49.003Z,1022.57
2023-01-22T05:43:49.162Z,1022.60
2023-01-22T05:44:49.303Z,1022.59
2023-01-22T05:45:49.464Z,1022.57
2023-01-22T05:46:49.594Z,1022.61
2023-01-22T05:47:49.845Z,1022.63
2023-01-22T05:48:50.009Z,1022.65
2023-01-22T05:49:50.164Z,1022.65
2023-01-22T05:50:50.373Z,1022.62
2023-01-22T05:51:50.550Z,1022.67
2023-01-22T05:52:50.677Z,1022.68
2023-01-22T05:53:50.848Z,1022.71
2023-01-22T05:54:50.978Z,1022.73
2023-01-22T05:55:51.117Z,1022.73
2023-01-22T05:56:51.259Z,1022.76
2023-01-22T05:57:51.397Z,1022.78
2023-01-22T05:58:51.557Z,1022.83
2023-01-22T05:59:51.699Z,1022.85
2023-01-22T06:00:51.836Z,1022.79
2023-01-22T06:01:51.978Z,1022.79
2023-01-22T06:02:52.262Z,1022.77
2023-01-22T06:03:52.521Z,1022.77
2023-01-22T06:04:52.550Z,1022.78
2023-01-22T06:05:52.685Z,1022.83
2023-01-22T06:06:52.839Z,1022.84
2023-01-22T06:07:52.994Z,1022.83
2023-01-22T06:08:53.182Z,1022.89
2023-01-22T06:09:53.329Z,1022.88
2023-01-22T06:10:53.492Z,1022.94
2023-01-22T06:11:53.632Z,1022.91
2023-01-22T06:12:53.811Z,1022.95
2023-01-22T06:13:53.988Z,1022.96
2023-01-22T06:14:54.145Z,1022.91
2023-01-22T06:15:54.307Z,1022.94
2023-01-22T06:16:54.443Z,1022.94
2023-01-22T06:17:54.720Z,1022.94
2023-01-22T06:18:54.875Z,1022.91
2023-01-22T06:19:55.029Z,1022.96
2023-01-22T06:20:55.195Z,1022.94
2023-01-22T06:21:55.348Z,1022.96
2023-01-22T06:22:55.524Z,1022.98
2023-01-22T06:23:55.690Z,1023.00
2023-01-22T06:24:55.847Z,1022.99
2023-01-22T06:25:56.040Z,1022.97
2023-01-22T06:26:56.280Z,1022.98
2023-01-22T06:27:56.481Z,1023.05
2023-01-22T06:28:56.707Z,1023.03
2023-01-22T06:29:56.912Z,1023.02
2023-01-22T06:30:57.212Z,1023.04
2023-01-22T06:31:57.386Z,1023.03
2023-01-22T06:32:57.474Z,1023.02
2023-01-22T06:33:57.719Z,1023.02
2023-01-22T06:34:57.859Z,1023.02
2023-01-22T06:35:57.972Z,1023.05
2023-01-22T06:36:58.201Z,1023.05
2023-01-22T06:37:58.499Z,1023.06
2023-01-22T06:38:58.634Z,1023.05
2023-01-22T06:39:58.792Z,1023.03
2023-01-22T06:40:58.934Z,1023.07
2023-01-22T06:41:59.147Z,1023.09
2023-01-22T06:42:59.379Z,1023.06
2023-01-22T06:43:59.631Z,1023.04
2023-01-22T06:44:59.821Z,1023.05
2023-01-22T06:45:59.945Z,1023.08
2023-01-22T06:47:00.171Z,1023.09
2023-01-22T06:48:00.420Z,1023.09
2023-01-22T06:49:00.665Z,1023.08
2023-01-22T06:50:00.849Z,1023.06
2023-01-22T06:51:01.062Z,1023.08
2023-01-22T06:52:01.207Z,1023.08
2023-01-22T06:53:01.395Z,1023.04
2023-01-22T06:54:01.603Z,1023.02
2023-01-22T06:55:01.796Z,1023.06
2023-01-22T06:56:01.969Z,1023.09
2023-01-22T06:57:02.110Z,1023.02
2023-01-22T06:58:02.283Z,1023.07
2023-01-22T06:59:02.478Z,1023.08
2023-01-22T07:00:02.714Z,1023.09
2023-01-22T07:01:02.886Z,1023.05
2023-01-22T07:02:03.068Z,1023.10
2023-01-22T07:03:03.253Z,1023.10
2023-01-22T07:04:03.480Z,1023.07
2023-01-22T07:05:03.563Z,1023.08
2023-01-22T07:06:03.731Z,1023.06
2023-01-22T07:07:03.902Z,1023.07
2023-01-22T07:08:04.073Z,1023.08
2023-01-22T07:09:04.252Z,1023.05
2023-01-22T07:10:04.422Z,1023.06
2023-01-22T07:11:07.563Z,1023.10
2023-01-22T07:12:04.817Z,1023.12
2023-01-22T07:13:04.999Z,1023.10
2023-01-22T07:14:05.215Z,1023.15
2023-01-22T07:15:05.410Z,1023.12
2023-01-22T07:16:05.685Z,1023.16
2023-01-22T07:17:05.768Z,1023.17
2023-01-22T07:18:05.936Z,1023.23
2023-01-22T07:19:06.145Z,1023.24
2023-01-22T07:20:06.306Z,1023.25
2023-01-22T07:21:06.531Z,1023.27
2023-01-22T07:22:06.687Z,1023.32
2023-01-22T07:23:06.888Z,1023.33
2023-01-22T07:24:07.063Z,1023.33
2023-01-22T07:25:07.249Z,1023.30
2023-01-22T07:26:07.446Z,1023.36
2023-01-22T07:27:07.632Z,1023.39
2023-01-22T07:28:07.806Z,1023.45
2023-01-22T07:29:08.011Z,1023.47
2023-01-22T07:30:08.192Z,1023.46
2023-01-22T07:31:08.435Z,1023.47
2023-01-22T07:32:08.538Z,1023.53
2023-01-22T07:33:08.735Z,1023.47
2023-01-22T07:34:08.929Z,1023.50
2023-01-22T07:35:09.126Z,1023.54
2023-01-22T07:36:09.319Z,1023.52
2023-01-22T07:37:09.513Z,1023.57
2023-01-22T07:38:09.704Z,1023.58
2023-01-22T07:39:09.905Z,1023.62
2023-01-22T07:40:10.104Z,1023.55
2023-01-22T07:41:24.580Z,1023.60
2023-01-22T07:42:11.461Z,1023.66
2023-01-22T07:43:10.655Z,1023.67
2023-01-22T07:44:10.860Z,1023.66
2023-01-22T07:45:11.057Z,1023.68
2023-01-22T07:46:11.284Z,1023.71
2023-01-22T07:47:11.467Z,1023.72
2023-01-22T07:48:11.659Z,1023.75
2023-01-22T07:49:11.868Z,1023.75
2023-01-22T07:50:12.064Z,1023.74
2023-01-22T07:51:12.284Z,1023.72
2023-01-22T07:52:12.471Z,1023.70
2023-01-22T07:53:13.652Z,1023.72
2023-01-22T07:54:12.815Z,1023.68
2023-01-22T07:55:20.002Z,1023.70
2023-01-22T07:56:13.160Z,1023.73
2023-01-22T07:57:13.348Z,1023.75
2023-01-22T07:58:13.535Z,1023.77
2023-01-22T07:59:13.746Z,1023.77
2023-01-22T08:00:13.939Z,1023.77
2023-01-22T08:01:14.193Z,1023.81
2023-01-22T08:02:14.402Z,1023.81
2023-01-22T08:03:14.482Z,1023.83
2023-01-22T08:04:14.680Z,1023.85
2023-01-22T08:05:14.873Z,1023.79
2023-01-22T08:06:15.048Z,1023.83
2023-01-22T08:07:15.260Z,1023.88
2023-01-22T08:08:15.416Z,1023.87
2023-01-22T08:09:15.620Z,1023.83
2023-01-22T08:10:16.062Z,1023.83
2023-01-22T08:11:16.007Z,1023.85
2023-01-22T08:12:16.187Z,1023.85
2023-01-22T08:13:16.379Z,1023.92
2023-01-22T08:14:16.612Z,1023.93
2023-01-22T08:15:16.793Z,1023.86
2023-01-22T08:16:17.088Z,1023.90
2023-01-22T08:17:17.133Z,1023.90
2023-01-22T08:18:19.103Z,1023.88
2023-01-22T08:19:17.488Z,1023.91
2023-01-22T08:20:17.946Z,1023.89
2023-01-22T08:21:17.825Z,1023.92
2023-01-22T08:22:18.026Z,1023.92
2023-01-22T08:23:18.204Z,1023.92
2023-01-22T08:24:18.421Z,1023.89
2023-01-22T08:25:18.623Z,1023.88
2023-01-22T08:26:18.794Z,1023.92
2023-01-22T08:27:18.977Z,1023.94
2023-01-22T08:28:19.164Z,1023.98
2023-01-22T08:29:19.364Z,1023.98
2023-01-22T08:30:19.943Z,1024.00
2023-01-22T08:31:27.838Z,1023.98
2023-01-22T08:32:20.995Z,1023.99
2023-01-22T08:33:20.157Z,1024.03
2023-01-22T08:34:20.370Z,1024.02
2023-01-22T08:35:20.809Z,1024.00
2023-01-22T08:36:20.770Z,1024.01
2023-01-22T08:37:20.957Z,1024.03
2023-01-22T08:38:21.131Z,1024.01
2023-01-22T08:39:21.323Z,1024.02
2023-01-22T08:40:21.509Z,1024.08
2023-01-22T08:41:21.726Z,1024.08
2023-01-22T08:42:21.892Z,1024.11
2023-01-22T08:43:22.071Z,1024.06
2023-01-22T08:44:22.277Z,1024.10
2023-01-22T08:45:22.476Z,1024.09
2023-01-22T08:46:22.646Z,1024.10
2023-01-22T08:47:22.830Z,1024.10
2023-01-22T08:48:22.998Z,1024.12
2023-01-22T08:49:23.214Z,1024.14
2023-01-22T08:50:23.383Z,1024.09
2023-01-22T08:51:23.645Z,1024.12
2023-01-22T08:52:23.691Z,1024.14
2023-01-22T08:53:23.866Z,1024.14
2023-01-22T08:54:24.059Z,1024.19
2023-01-22T08:55:24.243Z,1024.20
2023-01-22T08:56:24.482Z,1024.20
2023-01-22T08:57:24.559Z,1024.21
2023-01-22T08:58:24.738Z,1024.26
2023-01-22T08:59:24.933Z,1024.23
2023-01-22T09:00:25.164Z,1024.26
2023-01-22T09:01:25.327Z,1024.21
2023-01-22T09:02:25.556Z,1024.23
2023-01-22T09:03:25.720Z,1024.25
2023-01-22T09:04:25.906Z,1024.31
2023-01-22T09:05:26.100Z,1024.30
2023-01-22T09:06:26.259Z,1024.30
2023-01-22T09:07:26.454Z,1024.36
2023-01-22T09:08:26.634Z,1024.35
2023-01-22T09:09:26.827Z,1024.38
2023-01-22T09:10:26.999Z,1024.36
2023-01-22T09:11:27.180Z,1024.38
2023-01-22T09:12:27.349Z,1024.42
2023-01-22T09:13:27.518Z,1024.41
2023-01-22T09:14:27.745Z,1024.45
2023-01-22T09:15:27.939Z,1024.44
2023-01-22T09:16:28.162Z,1024.44
2023-01-22T09:17:28.324Z,1024.47
2023-01-22T09:18:28.492Z,1024.50
2023-01-22T09:19:28.670Z,1024.49
2023-01-22T09:20:28.836Z,1024.50
2023-01-22T09:21:29.009Z,1024.55
2023-01-22T09:22:29.170Z,1024.47
2023-01-22T09:23:29.343Z,1024.50
2023-01-22T09:24:29.522Z,1024.53
2023-01-22T09:25:29.711Z,1024.57
2023-01-22T09:26:29.872Z,1024.53
2023-01-22T09:27:30.042Z,1024.47
2023-01-22T09:28:30.207Z,1024.49
2023-01-22T09:29:30.406Z,1024.50
2023-01-22T09:30:30.704Z,1024.52
2023-01-22T09:31:30.800Z,1024.46
2023-01-22T09:32:30.976Z,1024.52
2023-01-22T09:33:31.144Z,1024.48
2023-01-22T09:34:31.331Z,1024.50
2023-01-22T09:35:31.514Z,1024.55
2023-01-22T09:36:31.672Z,1024.57
2023-01-22T09:37:31.923Z,1024.60
2023-01-22T09:38:32.095Z,1024.62
2023-01-22T09:39:32.281Z,1024.63
2023-01-22T09:40:32.453Z,1024.65
2023-01-22T09:41:32.618Z,1024.68
2023-01-22T09:42:32.797Z,1024.69
2023-01-22T09:43:32.977Z,1024.74
2023-01-22T09:44:33.149Z,1024.74
2023-01-22T09:45:33.360Z,1024.74
2023-01-22T09:46:33.511Z,1024.69
2023-01-22T09:47:33.706Z,1024.71
2023-01-22T09:48:33.859Z,1024.70
2023-01-22T09:49:34.035Z,1024.71
2023-01-22T09:50:34.315Z,1024.70
2023-01-22T09:51:34.394Z,1024.69
2023-01-22T09:52:34.552Z,1024.71
2023-01-22T09:53:34.714Z,1024.70
2023-01-22T09:54:34.905Z,1024.71
2023-01-22T09:55:35.063Z,1024.75
2023-01-22T09:56:35.220Z,1024.76
2023-01-22T09:57:35.387Z,1024.70
2023-01-22T09:58:35.549Z,1024.71
2023-01-22T09:59:35.728Z,1024.72
2023-01-22T10:00:35.893Z,1024.76
2023-01-22T10:01:36.177Z,1024.74
2023-01-22T10:02:36.281Z,1024.72
2023-01-22T10:03:36.442Z,1024.77
2023-01-22T10:04:36.616Z,1024.73
2023-01-22T10:05:36.773Z,1024.75
2023-01-22T10:06:36.960Z,1024.71
2023-01-22T10:07:37.124Z,1024.74
2023-01-22T10:08:37.266Z,1024.71
2023-01-22T10:09:37.450Z,1024.73
2023-01-22T10:10:37.619Z,1024.67
2023-01-22T10:11:37.785Z,1024.70
2023-01-22T10:12:37.964Z,1024.67
2023-01-22T10:13:38.093Z,1024.67
2023-01-22T10:14:38.258Z,1024.69
2023-01-22T10:15:38.392Z,1024.72
2023-01-22T10:16:38.623Z,1024.68
2023-01-22T10:17:38.737Z,1024.69
2023-01-22T10:18:38.902Z,1024.68
2023-01-22T10:19:39.047Z,1024.72
2023-01-22T10:20:39.199Z,1024.71
2023-01-22T10:21:39.347Z,1024.66
2023-01-22T10:22:39.504Z,1024.70
2023-01-22T10:23:39.660Z,1024.68
2023-01-22T10:24:39.837Z,1024.71
2023-01-22T10:25:39.990Z,1024.72
2023-01-22T10:26:40.174Z,1024.72
2023-01-22T10:27:40.353Z,1024.74
2023-01-22T10:28:40.516Z,1024.72
2023-01-22T10:29:40.773Z,1024.75
2023-01-22T10:30:40.866Z,1024.75
2023-01-22T10:31:40.972Z,1024.80
2023-01-22T10:32:41.047Z,1024.73
2023-01-22T10:33:41.202Z,1024.80
2023-01-22T10:34:41.392Z,1024.76
2023-01-22T10:35:41.554Z,1024.75
2023-01-22T10:36:41.758Z,1024.74
2023-01-22T10:37:41.941Z,1024.76
2023-01-22T10:38:42.091Z,1024.76
2023-01-22T10:39:42.305Z,1024.78
2023-01-22T10:40:42.452Z,1024.77
2023-01-22T10:41:42.612Z,1024.78
2023-01-22T10:42:42.778Z,1024.77
2023-01-22T10:43:42.939Z,1024.75
2023-01-22T10:44:43.121Z,1024.80
2023-01-22T10:45:43.272Z,1024.80
2023-01-22T10:46:43.431Z,1024.76
2023-01-22T10:47:43.592Z,1024.75
2023-01-22T10:48:43.756Z,1024.76
2023-01-22T10:49:43.926Z,1024.73
2023-01-22T10:50:44.082Z,1024.79
2023-01-22T10:51:44.262Z,1024.78
2023-01-22T10:52:44.389Z,1024.78
2023-01-22T10:53:44.534Z,1024.79
2023-01-22T10:54:44.709Z,1024.77
2023-01-22T10:55:44.833Z,1024.75
2023-01-22T10:56:44.982Z,1024.77
2023-01-22T10:57:45.185Z,1024.72
2023-01-22T10:58:45.328Z,1024.67
2023-01-22T10:59:45.519Z,1024.70
2023-01-22T11:00:52.289Z,1024.69
2023-01-22T11:01:46.867Z,1024.66
2023-01-22T11:02:46.254Z,1024.67
2023-01-22T11:03:46.202Z,1024.67
2023-01-22T11:04:46.371Z,1024.62
2023-01-22T11:05:46.532Z,1024.58
2023-01-22T11:06:46.676Z,1024.58
2023-01-22T11:07:46.827Z,1024.63
2023-01-22T11:08:46.994Z,1024.64
2023-01-22T11:09:47.141Z,1024.67
2023-01-22T11:10:47.294Z,1024.70
2023-01-22T11:11:47.415Z,1024.69
2023-01-22T11:12:47.554Z,1024.68
2023-01-22T11:13:47.682Z,1024.80
2023-01-22T11:14:47.838Z,1024.80
2023-01-22T11:15:47.991Z,1024.81
2023-01-22T11:16:48.107Z,1024.80
2023-01-22T11:17:48.231Z,1024.80
2023-01-22T11:18:48.357Z,1024.78
2023-01-22T11:19:48.527Z,1024.83
2023-01-22T11:20:48.649Z,1024.82
2023-01-22T11:21:48.777Z,1024.78
2023-01-22T11:22:48.938Z,1024.82
2023-01-22T11:23:49.064Z,1024.79
2023-01-22T11:24:49.208Z,1024.79
2023-01-22T11:25:49.346Z,1024.76
2023-01-22T11:26:49.488Z,1024.81
2023-01-22T11:27:49.613Z,1024.81
2023-01-22T11:28:49.756Z,1024.80
2023-01-22T11:29:49.903Z,1024.82
2023-01-22T11:30:50.125Z,1024.80
2023-01-22T11:31:50.214Z,1024.80
2023-01-22T11:32:50.337Z,1024.75
2023-01-22T11:33:50.478Z,1024.76
2023-01-22T11:34:50.626Z,1024.79
2023-01-22T11:35:50.751Z,1024.78
2023-01-22T11:36:50.906Z,1024.78
2023-01-22T11:37:51.041Z,1024.77
2023-01-22T11:38:51.209Z,1024.74
2023-01-22T11:39:51.362Z,1024.76
2023-01-22T11:40:51.497Z,1024.75
2023-01-22T11:41:51.637Z,1024.74
2023-01-22T11:42:51.811Z,1024.78
2023-01-22T11:43:51.935Z,1024.77
2023-01-22T11:44:52.101Z,1024.73
2023-01-22T11:45:52.262Z,1024.66
2023-01-22T11:46:52.382Z,1024.67
2023-01-22T11:47:52.508Z,1024.68
2023-01-22T11:48:52.662Z,1024.72
2023-01-22T11:49:52.789Z,1024.73
2023-01-22T11:50:52.954Z,1024.71
2023-01-22T11:51:53.108Z,1024.73
2023-01-22T11:52:53.240Z,1024.72
2023-01-22T11:53:53.378Z,1024.73
2023-01-22T11:54:53.539Z,1024.73
2023-01-22T11:55:53.676Z,1024.70
2023-01-22T11:56:53.824Z,1024.73
2023-01-22T11:57:53.946Z,1024.70
2023-01-22T11:58:54.104Z,1024.70
2023-01-22T11:59:54.245Z,1024.65
2023-01-22T12:00:54.392Z,1024.69
2023-01-22T12:01:54.535Z,1024.71
2023-01-22T12:02:54.699Z,1024.65
2023-01-22T12:03:54.873Z,1024.75
2023-01-22T12:04:55.012Z,1024.71
2023-01-22T12:05:55.147Z,1024.69
2023-01-22T12:06:55.291Z,1024.68
2023-01-22T12:07:55.415Z,1024.61